Huvudsida
METAR-TAF:

METAR-TAF

Flygplatser :

Melun, Frankrike

latitud: 48-37N, longitud: 002-41E, höjd: 95 m

Aktuellt väderrapport

Denna rapport gjordes för 39 minuter sedan, klockan 14:00 UTC
Vind 18 kt från nord i byarna ända upp till 29 kt
Temperatur 8°C
Fuktighet 34%
Tryck 1026 hPa
Sikt 10 km eller mer
Inga moln under 1 500 m eller inga cumulonimbus

METAR: LFPM 291400Z AUTO 01018G29KT CAVOK 08/M07 Q1026

Tid: 16:39 (14:39 UTC)


TAF: saknas

Aktuella väderrapporter och prognoser från 4000 flygplatser (METAR- och TAF-rapporter).

De tillgängliga stationerna syns som gula och röda prickar på kartan.

För musen över prickarna för att se namnen på stationerna.

Klicka sedan för att få väderrapporter och prognoser.

För att ändra kartan: Klicka på de gröna knapparna med ett svart kors på för att zooma in; den gröna knappen med ett streck på för att zooma ut; eller på de gröna pilarna för angränsande kartor.


METAR-TAF: